• Join FlightAware (Why Join?)
  • Login
  • US Flag 
02:08PM EDT


 

Airport Tracker/Info


-or-


 

Live Flight TrackerFlight Track Log ✈ UPS1269 ✈ 24-Oct-2013 ✈ KGSO - KSDF

Flight Track Log - Related Links

Times and Time Zones

All times are in EDT time to prevent confusion due to time zone crossing. See the UPS1269 flight status page for this flight to view local times or setup timezone preferences in your user account.

Time Position Orientation Groundspeed Altitude Reporting Facility
EDT Latitude Longitude Course Direction KTS MPH feet Rate Location/Type
11:45PM 36.0872 -80.0433 270° West 187 215 5,500  Level Atlanta Center
11:46PM 36.1025 -80.1300 282° West 209 241 9,000 3,180 Climbing Atlanta Center
11:47PM 36.1175 -80.2114 283° West 241 277 11,900 1,920 Climbing Atlanta Center
11:48PM 36.1308 -80.3033 280° West 280 322 12,900 2,220 Climbing Atlanta Center
11:50PM 36.3302 -80.5300 270° West  Level Estimated
11:54PM 36.3150 -80.9990 280° West 387 445 27,700  Level FlightAware
11:55PM 36.3364 -81.0590 294° West 385 443 28,700 2,100 Climbing FlightAware ADS-B
11:56PM 36.3623 -81.1308 294° West 382 440 30,000 1,920 Climbing FlightAware ADS-B
11:56PM 36.3989 -81.2329 294° West 376 433 31,600 1,620 Climbing FlightAware ADS-B
11:57PM 36.4352 -81.3347 294° West 377 434 32,900 1,440 Climbing FlightAware ADS-B
11:58PM 36.4571 -81.3964 294° West 378 435 33,600 1,020 Climbing FlightAware ADS-B
11:58PM 36.4795 -81.4594 294° West 386 444 34,000 360 Climbing FlightAware ADS-B
11:59PM 36.5037 -81.5275 294° West 391 450 34,000  Level FlightAware ADS-B
11:59PM 36.5273 -81.5939 294° West 389 448 34,000  Level FlightAware ADS-B
12:00AM 36.5490 -81.6554 294° West 386 444 34,000  Level FlightAware ADS-B
12:00AM 36.5737 -81.7246 294° West 381 438 34,000  Level FlightAware ADS-B
12:01AM 36.5950 -81.7848 294° West 375 432 34,000  Level FlightAware ADS-B
12:01AM 36.6167 -81.8463 294° West 371 427 34,000  Level FlightAware ADS-B
12:02AM 36.6502 -81.9415 294° West 368 423 34,000  Level FlightAware ADS-B
12:03AM 36.6738 -82.0087 294° West 368 423 34,000  Level FlightAware ADS-B
12:03AM 36.6915 -82.0597 293° West 367 422 34,000  Level FlightAware ADS-B
12:04AM 36.7119 -82.1186 293° West 366 421 34,000  Level FlightAware ADS-B
12:04AM 36.7320 -82.1763 294° West 365 420 34,000  Level FlightAware ADS-B
12:05AM 36.7533 -82.2371 294° West 362 417 34,000  Level FlightAware ADS-B
12:05AM 36.7756 -82.3012 293° West 360 414 34,000  Level FlightAware ADS-B
12:06AM 36.7960 -82.3602 293° West 361 415 34,000  Level FlightAware ADS-B
12:06AM 36.8157 -82.4175 293° West 361 415 34,000  Level FlightAware ADS-B
12:07AM 36.8437 -82.4981 293° West 357 411 34,000  Level FlightAware ADS-B
12:08AM 36.8634 -82.5555 293° West 355 409 34,000  Level FlightAware ADS-B
12:08AM 36.8829 -82.6122 293° West 353 406 34,000  Level FlightAware ADS-B
12:09AM 36.9021 -82.6686 293° West 351 404 34,000  Level FlightAware ADS-B
12:09AM 36.9216 -82.7256 293° West 351 404 34,000  Level FlightAware ADS-B
12:10AM 36.9411 -82.7826 293° West 350 403 34,000  Level FlightAware ADS-B
12:10AM 36.9602 -82.8387 293° West 349 402 34,000  Level FlightAware ADS-B
12:11AM 36.9834 -82.9072 293° West 353 406 34,000  Level FlightAware ADS-B
12:11AM 37.0036 -82.9672 293° West 359 413 34,000  Level FlightAware ADS-B
12:12AM 37.0236 -83.0263 293° West 365 420 34,000  Level FlightAware ADS-B
12:12AM 37.0437 -83.0855 293° West 366 421 34,000  Level FlightAware ADS-B
12:13AM 37.0638 -83.1449 293° West 364 419 34,000  Level FlightAware ADS-B
12:13AM 37.0837 -83.2040 293° West 361 415 34,000  Level FlightAware ADS-B
12:14AM 37.1033 -83.2623 293° West 359 413 34,000  Level FlightAware ADS-B
12:14AM 37.1219 -83.3174 293° West 360 414 34,000  Level FlightAware ADS-B
12:15AM 37.1427 -83.3789 293° West 366 421 34,000  Level FlightAware ADS-B
12:15AM 37.1624 -83.4379 293° West 368 423 34,000  Level FlightAware ADS-B
12:16AM 37.1747 -83.4749 293° West 365 420 34,000  Level FlightAware ADS-B
12:16AM 37.1775 -83.4850 289° West 363 418 34,000  Level FlightAware ADS-B
12:16AM 37.1790 -83.4919 285° West 361 415 34,000 -780 Level FlightAware ADS-B
12:16AM 37.1805 -83.5016 281° West 361 415 33,900 -2,280 Descending FlightAware ADS-B
12:16AM 37.1811 -83.5102 275° West 361 415 33,700 -1,740 Descending FlightAware ADS-B
12:16AM 37.1807 -83.5309 269° West 358 412 33,500 -1,620 Descending FlightAware ADS-B
12:17AM 37.1758 -83.5939 264° West 349 402 32,600 -1,800 Descending FlightAware ADS-B
12:17AM 37.1698 -83.6650 264° West 337 388 31,500 -2,340 Descending FlightAware ADS-B
12:18AM 37.1637 -83.7447 265° West 329 379 29,600 -2,400 Descending FlightAware ADS-B
12:19AM 37.1602 -83.8069 266° West 335 386 28,500 -2,100 Descending FlightAware ADS-B
12:19AM 37.1559 -83.8659 265° West 344 396 27,400 -2,100 Descending FlightAware ADS-B
12:20AM 37.1503 -83.9266 263° West 345 397 26,400 -1,980 Descending FlightAware ADS-B
12:20AM 37.1452 -83.9870 264° West 349 402 25,400 -1,980 Descending FlightAware ADS-B
12:21AM 37.1407 -84.0473 265° West 343 395 24,400 -1,920 Descending FlightAware ADS-B
12:21AM 37.1364 -84.1064 265° West 338 389 23,500 -1,920 Descending FlightAware ADS-B
12:22AM 37.1322 -84.1651 265° West 332 382 22,500 -1,980 Descending FlightAware ADS-B
12:22AM 37.1269 -84.2342 265° West 328 377 21,300 -1,980 Descending FlightAware ADS-B
12:23AM 37.1217 -84.2917 264° West 330 380 20,300 -1,980 Descending FlightAware ADS-B
12:23AM 37.1182 -84.3489 266° West 326 375 19,300 -1,380 Descending FlightAware ADS-B
12:24AM 37.1150 -84.4011 266° West 320 368 19,000 -540 Descending FlightAware ADS-B
12:24AM 37.1152 -84.4134 271° West 317 365 19,000 -600 Level FlightAware ADS-B
12:24AM 37.1163 -84.4223 279° West 316 364 18,900 -1,440 Descending FlightAware ADS-B
12:24AM 37.1201 -84.4363 289° West 314 361 18,700 -2,580 Descending FlightAware ADS-B
12:24AM 37.1239 -84.4458 297° West 314 361 18,300 -3,900 Descending FlightAware ADS-B
12:24AM 37.1331 -84.4625 305° West 321 369 17,600 -4,020 Descending FlightAware ADS-B
12:24AM 37.1401 -84.4721 312° West 328 377 17,100 -4,380 Descending FlightAware ADS-B
12:25AM 37.1774 -84.5087 322° Northwest 347 399 14,900 -3,540 Descending FlightAware ADS-B
12:25AM 37.2257 -84.5531 324° Northwest 352 405 13,200 -1,920 Descending FlightAware ADS-B
12:26AM 37.2752 -84.5984 324° Northwest 351 404 12,500 4,320 Descending FlightAware ADS-B
12:27AM 37.0980 -84.7080 206° Southwest 326 375 19,500 -840 Climbing FlightAware
12:28AM 37.4472 -84.7572 206° Southwest 353 406 10,700 -1,560 Descending Indianapolis Center
12:34AM 37.7770 -85.1860 206° Southwest 260 299 9,200 -420 Descending FlightAware
12:34AM 37.7790 -85.2430 273° West 255 293 8,200 -1,800 Descending FlightAware
12:35AM 37.7760 -85.2880 265° West 259 298 7,300 -1,740 Descending FlightAware
12:35AM 37.7700 -85.3430 262° West 262 302 6,300 -1,680 Descending FlightAware
12:36AM 37.7690 -85.3560 264° West 263 303 6,100 -1,440 Descending FlightAware
12:36AM 37.7930 -85.4150 297° West 254 292 5,000 -1,440 Descending FlightAware
12:37AM 37.8060 -85.4390 304° West 252 290 4,500 -1,440 Descending FlightAware
12:37AM 37.8240 -85.4750 302° West 249 287 3,800 -840 Descending FlightAware
12:38AM 37.8390 -85.5130 297° West 227 261 3,700 -240 Descending FlightAware
12:38AM 37.8280 -85.5620 254° West 193 222 3,500 -420 Descending FlightAware
12:39AM 37.8220 -85.5840 251° West 178 205 3,300 -780 Descending FlightAware
12:39AM 37.8370 -85.6070 310° West 150 173 2,800 -600 Descending FlightAware
12:40AM 37.8540 -85.6150 340° North 151 174 2,700 -120 Descending FlightAware
12:40AM 37.8830 -85.6290 339° North 159 183 2,700  Level FlightAware
12:41AM 37.8950 -85.6330 345° North 159 183 2,700  Level FlightAware
12:41AM 37.9100 -85.6380 345° North 156 180 2,700  Level FlightAware
12:42AM 37.9380 -85.6450 349° North 155 178 2,700  Level FlightAware
12:42AM 37.9580 -85.6530 342° North 155 178 2,700  Level FlightAware
12:43AM 37.9780 -85.6600 345° North 155 178 2,700  Level FlightAware
12:43AM 38.0030 -85.6690 344° North 155 178 2,700  Level FlightAware
12:44AM 38.0280 -85.6770 346° North 155 178 2,700 -300 Level FlightAware
12:45AM 38.0550 -85.6860 345° North 155 178 2,400 -660 Descending FlightAware
12:45AM 38.0740 -85.6930 344° North 152 175 2,000 -780 Descending FlightAware
12:45AM 38.0930 -85.6990 346° North 123 142 1,700 -660 Descending FlightAware
12:46AM 38.1060 -85.7040 343° North 112 129 1,400 -720 Descending FlightAware
12:47AM 38.1230 -85.7090 347° North 117 135 1,000 -660 Descending FlightAware
12:47AM 38.1310 -85.7120 344° North 118 136 900 -600 Descending FlightAware
12:47AM 38.1460 -85.7170 345° North 123 142 600 -780 Descending FlightAware
12:48AM 38.1620 -85.7230 344° North 129 148 200 -900 Descending FlightAware
12:48AM 38.1700 -85.7250 349° North 120 138 -900 Descending FlightAware